createdAt,value
2019-01-17T00:00:03.101Z,933.70
2019-01-17T00:01:02.968Z,933.72
2019-01-17T00:02:02.849Z,933.66
2019-01-17T00:03:02.745Z,933.70
2019-01-17T00:04:02.643Z,933.71
2019-01-17T00:05:02.648Z,933.76
2019-01-17T00:06:02.452Z,933.76
2019-01-17T00:07:02.335Z,933.71
2019-01-17T00:08:02.229Z,933.69
2019-01-17T00:09:02.126Z,933.70
2019-01-17T00:10:02.027Z,933.72
2019-01-17T00:11:01.938Z,933.73
2019-01-17T00:12:01.922Z,933.69
2019-01-17T00:13:01.717Z,933.72
2019-01-17T00:14:01.614Z,933.73
2019-01-17T00:15:01.536Z,933.67
2019-01-17T00:16:01.424Z,933.68
2019-01-17T00:17:01.306Z,933.67
2019-01-17T00:18:01.204Z,933.60
2019-01-17T00:19:01.214Z,933.63
2019-01-17T00:20:00.997Z,933.65
2019-01-17T00:21:00.910Z,933.65
2019-01-17T00:22:00.799Z,933.59
2019-01-17T00:23:00.690Z,933.66
2019-01-17T00:24:02.742Z,933.62
2019-01-17T00:25:00.480Z,933.65
2019-01-17T00:26:00.497Z,933.60
2019-01-17T00:27:00.275Z,933.66
2019-01-17T00:28:00.173Z,933.67
2019-01-17T00:29:00.071Z,933.64
2019-01-17T00:29:59.967Z,933.58
2019-01-17T00:30:59.884Z,933.62
2019-01-17T00:31:59.766Z,933.52
2019-01-17T00:32:59.763Z,933.53
2019-01-17T00:33:59.555Z,933.54
2019-01-17T00:34:59.453Z,933.53
2019-01-17T00:35:59.366Z,933.55
2019-01-17T00:36:59.250Z,933.52
2019-01-17T00:37:59.151Z,933.52
2019-01-17T00:38:59.046Z,933.57
2019-01-17T00:39:59.048Z,933.56
2019-01-17T00:40:58.856Z,933.59
2019-01-17T00:41:58.733Z,933.53
2019-01-17T00:42:58.635Z,933.54
2019-01-17T00:43:58.534Z,933.55
2019-01-17T00:44:58.428Z,933.54
2019-01-17T00:45:58.342Z,933.55
2019-01-17T00:46:58.220Z,933.55
2019-01-17T00:47:58.119Z,933.51
2019-01-17T00:48:58.016Z,933.50
2019-01-17T00:49:57.914Z,933.50
2019-01-17T00:50:57.834Z,933.54
2019-01-17T00:51:57.709Z,933.49
2019-01-17T00:52:57.601Z,933.51
2019-01-17T00:53:57.499Z,933.48
2019-01-17T00:54:57.402Z,933.43
2019-01-17T00:55:57.316Z,933.43
2019-01-17T00:56:57.192Z,933.44
2019-01-17T00:57:57.092Z,933.38
2019-01-17T00:58:56.987Z,933.39
2019-01-17T00:59:56.888Z,933.42
2019-01-17T01:00:56.801Z,933.35
2019-01-17T01:01:56.683Z,933.38
2019-01-17T01:02:56.578Z,933.41
2019-01-17T01:03:56.472Z,933.39
2019-01-17T01:04:56.370Z,933.37
2019-01-17T01:05:56.284Z,933.41
2019-01-17T01:06:56.171Z,933.36
2019-01-17T01:07:56.063Z,933.38
2019-01-17T01:08:55.959Z,933.38
2019-01-17T01:09:55.858Z,933.37
2019-01-17T01:10:55.770Z,933.42
2019-01-17T01:11:55.652Z,933.39
2019-01-17T01:12:55.547Z,933.40
2019-01-17T01:13:55.466Z,933.42
2019-01-17T01:14:55.344Z,933.37
2019-01-17T01:15:55.244Z,933.36
2019-01-17T01:16:55.161Z,933.37
2019-01-17T01:17:55.039Z,933.38
2019-01-17T01:18:54.931Z,933.30
2019-01-17T01:19:54.829Z,933.37
2019-01-17T01:20:54.734Z,933.40
2019-01-17T01:21:54.639Z,933.38
2019-01-17T01:22:54.520Z,933.36
2019-01-17T01:23:54.419Z,933.39
2019-01-17T01:24:54.319Z,933.26
2019-01-17T01:25:54.218Z,933.29
2019-01-17T01:26:54.129Z,933.25
2019-01-17T01:27:54.005Z,933.22
2019-01-17T01:28:53.909Z,933.27
2019-01-17T01:29:53.808Z,933.25
2019-01-17T01:30:53.703Z,933.23
2019-01-17T01:31:53.620Z,933.20
2019-01-17T01:32:53.501Z,933.23
2019-01-17T01:33:53.390Z,933.28
2019-01-17T01:34:53.289Z,933.24
2019-01-17T01:35:53.190Z,933.25
2019-01-17T01:36:53.099Z,933.20
2019-01-17T01:37:52.979Z,933.24
2019-01-17T01:38:52.879Z,933.25
2019-01-17T01:39:52.781Z,933.28
2019-01-17T01:40:52.675Z,933.23
2019-01-17T01:41:52.586Z,933.28
2019-01-17T01:42:52.472Z,933.16
2019-01-17T01:43:52.364Z,933.21
2019-01-17T01:44:52.267Z,933.23
2019-01-17T01:45:52.162Z,933.20
2019-01-17T01:46:52.077Z,933.24
2019-01-17T01:47:51.954Z,933.18
2019-01-17T01:48:51.856Z,933.28
2019-01-17T01:49:51.750Z,933.22
2019-01-17T01:50:51.652Z,933.27
2019-01-17T01:51:51.562Z,933.23
2019-01-17T01:52:51.444Z,933.25
2019-01-17T01:53:51.342Z,933.34
2019-01-17T01:54:51.242Z,933.30
2019-01-17T01:55:51.136Z,933.24
2019-01-17T01:56:51.056Z,933.25
2019-01-17T01:57:50.935Z,933.25
2019-01-17T01:58:50.834Z,933.24
2019-01-17T01:59:50.734Z,933.31
2019-01-17T02:00:50.626Z,933.27
2019-01-17T02:01:50.542Z,933.19
2019-01-17T02:02:50.424Z,933.17
2019-01-17T02:03:50.320Z,933.29
2019-01-17T02:04:50.225Z,933.27
2019-01-17T02:05:50.119Z,933.36
2019-01-17T02:06:50.038Z,933.21
2019-01-17T02:07:49.917Z,933.34
2019-01-17T02:08:49.810Z,933.28
2019-01-17T02:09:49.710Z,933.32
2019-01-17T02:10:49.610Z,933.37
2019-01-17T02:11:49.522Z,933.29
2019-01-17T02:12:49.402Z,933.34
2019-01-17T02:13:49.305Z,933.16
2019-01-17T02:14:49.202Z,933.27
2019-01-17T02:15:49.099Z,933.13
2019-01-17T02:16:49.120Z,933.31
2019-01-17T02:17:48.894Z,933.11
2019-01-17T02:18:48.797Z,933.04
2019-01-17T02:19:48.690Z,933.16
2019-01-17T02:20:48.592Z,933.15
2019-01-17T02:21:48.506Z,933.25
2019-01-17T02:22:48.386Z,933.17
2019-01-17T02:23:48.388Z,933.18
2019-01-17T02:24:48.182Z,933.07
2019-01-17T02:25:48.083Z,933.01
2019-01-17T02:26:47.999Z,933.03
2019-01-17T02:27:47.878Z,933.12
2019-01-17T02:28:47.778Z,932.95
2019-01-17T02:29:47.676Z,933.05
2019-01-17T02:30:47.678Z,933.03
2019-01-17T02:31:47.495Z,933.04
2019-01-17T02:32:47.369Z,933.00
2019-01-17T02:33:47.272Z,932.97
2019-01-17T02:34:47.170Z,933.01
2019-01-17T02:35:47.066Z,932.92
2019-01-17T02:36:47.003Z,932.98
2019-01-17T02:37:46.986Z,933.14
2019-01-17T02:38:46.767Z,932.96
2019-01-17T02:39:46.661Z,932.98
2019-01-17T02:40:46.561Z,933.01
2019-01-17T02:41:46.473Z,932.98
2019-01-17T02:42:46.356Z,933.09
2019-01-17T02:43:46.260Z,933.01
2019-01-17T02:44:46.250Z,932.96
2019-01-17T02:45:46.054Z,932.94
2019-01-17T02:46:45.965Z,932.97
2019-01-17T02:47:45.850Z,933.00
2019-01-17T02:48:45.758Z,933.06
2019-01-17T02:49:45.648Z,933.09
2019-01-17T02:50:45.545Z,933.09
2019-01-17T02:51:45.567Z,933.08
2019-01-17T02:52:45.374Z,932.97
2019-01-17T02:53:45.242Z,932.98
2019-01-17T02:54:45.141Z,933.05
2019-01-17T02:55:45.036Z,933.02
2019-01-17T02:56:44.956Z,932.83
2019-01-17T02:57:44.837Z,932.93
2019-01-17T02:58:44.841Z,932.99
2019-01-17T02:59:44.637Z,932.95
2019-01-17T03:00:44.531Z,932.86
2019-01-17T03:01:44.432Z,932.93
2019-01-17T03:02:44.345Z,932.92
2019-01-17T03:03:44.234Z,932.88
2019-01-17T03:04:44.140Z,932.89
2019-01-17T03:05:44.145Z,932.96
2019-01-17T03:06:43.923Z,932.93
2019-01-17T03:07:43.837Z,932.89
2019-01-17T03:08:43.721Z,933.01
2019-01-17T03:09:43.619Z,932.99
2019-01-17T03:10:43.519Z,932.70
2019-01-17T03:11:43.419Z,932.82
2019-01-17T03:12:43.433Z,932.90
2019-01-17T03:13:43.214Z,932.89
2019-01-17T03:14:43.115Z,932.88
2019-01-17T03:15:43.016Z,932.75
2019-01-17T03:16:42.913Z,932.73
2019-01-17T03:17:42.828Z,932.91
2019-01-17T03:18:42.716Z,932.85
2019-01-17T03:19:42.708Z,932.94
2019-01-17T03:20:42.504Z,932.91
2019-01-17T03:21:42.405Z,932.88
2019-01-17T03:22:42.320Z,933.03
2019-01-17T03:23:42.205Z,932.53
2019-01-17T03:24:43.155Z,932.89
2019-01-17T03:25:42.001Z,932.94
2019-01-17T03:26:42.007Z,932.78
2019-01-17T03:27:41.818Z,932.91
2019-01-17T03:28:41.698Z,932.87
2019-01-17T03:29:41.595Z,932.81
2019-01-17T03:30:41.498Z,932.87
2019-01-17T03:31:41.391Z,932.92
2019-01-17T03:32:41.319Z,932.90
2019-01-17T03:33:41.191Z,932.90
2019-01-17T03:34:41.093Z,932.93
2019-01-17T03:35:40.987Z,932.94
2019-01-17T03:36:40.887Z,933.03
2019-01-17T03:37:40.813Z,933.01
2019-01-17T03:38:40.697Z,933.08
2019-01-17T03:39:40.585Z,933.06
2019-01-17T03:40:40.485Z,932.96
2019-01-17T03:41:40.383Z,933.08
2019-01-17T03:42:40.319Z,933.00
2019-01-17T03:43:40.179Z,932.90
2019-01-17T03:44:40.083Z,932.90
2019-01-17T03:45:39.981Z,932.93
2019-01-17T03:46:39.880Z,932.90
2019-01-17T03:47:39.794Z,932.96
2019-01-17T03:48:39.675Z,932.92
2019-01-17T03:49:39.575Z,932.96
2019-01-17T03:50:39.474Z,932.86
2019-01-17T03:51:39.369Z,932.87
2019-01-17T03:52:39.288Z,932.83
2019-01-17T03:53:39.173Z,932.92
2019-01-17T03:54:39.070Z,932.92
2019-01-17T03:55:38.964Z,932.94
2019-01-17T03:56:38.866Z,932.87
2019-01-17T03:57:38.784Z,932.77
2019-01-17T03:58:38.666Z,932.85
2019-01-17T03:59:38.570Z,932.80
2019-01-17T04:00:38.465Z,932.82
2019-01-17T04:01:38.361Z,932.83
2019-01-17T04:02:38.288Z,932.85
2019-01-17T04:03:38.162Z,932.80
2019-01-17T04:04:38.057Z,932.68
2019-01-17T04:05:37.958Z,932.65
2019-01-17T04:06:37.856Z,932.61
2019-01-17T04:07:37.779Z,932.67
2019-01-17T04:08:37.655Z,932.60
2019-01-17T04:09:37.553Z,932.58
2019-01-17T04:10:37.455Z,932.62
2019-01-17T04:11:37.348Z,932.71
2019-01-17T04:12:37.263Z,932.72
2019-01-17T04:13:37.144Z,932.71
2019-01-17T04:14:37.078Z,932.61
2019-01-17T04:15:37.249Z,932.55
2019-01-17T04:16:36.841Z,932.67
2019-01-17T04:17:36.761Z,932.69
2019-01-17T04:18:36.638Z,932.66
2019-01-17T04:19:36.539Z,932.69
2019-01-17T04:20:36.437Z,932.70
2019-01-17T04:21:36.359Z,932.66
2019-01-17T04:22:36.256Z,932.69
2019-01-17T04:23:36.131Z,932.66
2019-01-17T04:24:36.036Z,932.68
2019-01-17T04:25:35.933Z,932.75
2019-01-17T04:26:35.834Z,932.71
2019-01-17T04:27:35.745Z,932.74
2019-01-17T04:28:35.625Z,932.62
2019-01-17T04:29:35.526Z,932.67
2019-01-17T04:30:35.442Z,932.66
2019-01-17T04:31:35.322Z,932.75
2019-01-17T04:32:35.239Z,932.65
2019-01-17T04:33:35.119Z,932.69
2019-01-17T04:34:35.020Z,932.58
2019-01-17T04:35:34.917Z,932.70
2019-01-17T04:36:34.819Z,932.67
2019-01-17T04:37:34.739Z,932.63
2019-01-17T04:38:34.615Z,932.57
2019-01-17T04:39:34.513Z,932.58
2019-01-17T04:40:34.407Z,932.58
2019-01-17T04:41:34.315Z,932.56
2019-01-17T04:42:34.230Z,932.50
2019-01-17T04:43:34.107Z,932.58
2019-01-17T04:44:34.007Z,932.55
2019-01-17T04:45:33.902Z,932.58
2019-01-17T04:46:33.802Z,932.54
2019-01-17T04:47:33.703Z,932.58
2019-01-17T04:48:33.616Z,932.58
2019-01-17T04:49:33.523Z,932.47
2019-01-17T04:50:33.394Z,932.57
2019-01-17T04:51:33.299Z,932.54
2019-01-17T04:52:33.195Z,932.55
2019-01-17T04:53:33.112Z,932.56
2019-01-17T04:54:32.993Z,932.55
2019-01-17T04:55:32.893Z,932.57
2019-01-17T04:56:32.792Z,932.52
2019-01-17T04:57:32.690Z,932.56
2019-01-17T04:58:32.604Z,932.52
2019-01-17T04:59:32.484Z,932.37
2019-01-17T05:00:32.381Z,932.55
2019-01-17T05:01:32.290Z,932.52
2019-01-17T05:02:32.186Z,932.50
2019-01-17T05:03:32.121Z,932.54
2019-01-17T05:04:31.974Z,932.55
2019-01-17T05:05:31.880Z,932.53
2019-01-17T05:06:31.778Z,932.54
2019-01-17T05:07:31.677Z,932.45
2019-01-17T05:08:31.587Z,932.53
2019-01-17T05:09:31.471Z,932.56
2019-01-17T05:10:31.368Z,932.55
2019-01-17T05:11:31.271Z,932.54
2019-01-17T05:12:31.171Z,932.50
2019-01-17T05:13:31.083Z,932.56
2019-01-17T05:14:30.960Z,932.54
2019-01-17T05:15:30.858Z,932.50
2019-01-17T05:16:30.758Z,932.54
2019-01-17T05:17:30.656Z,932.57
2019-01-17T05:18:30.677Z,932.54
2019-01-17T05:19:30.453Z,932.60
2019-01-17T05:20:30.353Z,932.67
2019-01-17T05:21:30.252Z,932.67
2019-01-17T05:22:30.153Z,932.58
2019-01-17T05:23:30.065Z,932.60
2019-01-17T05:24:29.945Z,932.62
2019-01-17T05:25:29.953Z,932.62
2019-01-17T05:26:29.747Z,932.60
2019-01-17T05:27:29.645Z,932.59
2019-01-17T05:28:29.559Z,932.61
2019-01-17T05:29:29.443Z,932.63
2019-01-17T05:30:29.355Z,932.56
2019-01-17T05:31:29.247Z,932.64
2019-01-17T05:32:29.242Z,932.65
2019-01-17T05:33:29.055Z,932.59
2019-01-17T05:34:28.932Z,932.66
2019-01-17T05:35:28.830Z,932.70
2019-01-17T05:36:28.734Z,932.69
2019-01-17T05:37:28.628Z,932.68
2019-01-17T05:38:28.550Z,932.65
2019-01-17T05:39:28.526Z,932.69
2019-01-17T05:40:28.331Z,932.69
2019-01-17T05:41:28.224Z,932.72
2019-01-17T05:42:28.124Z,932.73
2019-01-17T05:43:28.037Z,932.72
2019-01-17T05:44:27.935Z,932.74
2019-01-17T05:45:27.820Z,932.77
2019-01-17T05:46:27.817Z,932.76
2019-01-17T05:47:27.617Z,932.76
2019-01-17T05:48:27.533Z,932.76
2019-01-17T05:49:27.414Z,932.68
2019-01-17T05:50:27.312Z,932.70
2019-01-17T05:51:27.208Z,932.73
2019-01-17T05:52:27.105Z,932.73
2019-01-17T05:53:27.143Z,932.63
2019-01-17T05:54:26.909Z,932.72
2019-01-17T05:55:26.807Z,932.73
2019-01-17T05:56:26.702Z,932.70
2019-01-17T05:57:26.605Z,932.80
2019-01-17T05:58:26.520Z,932.74
2019-01-17T05:59:26.399Z,932.77
2019-01-17T06:00:26.406Z,932.81
2019-01-17T06:01:26.193Z,932.78
2019-01-17T06:02:26.094Z,932.68
2019-01-17T06:03:26.010Z,932.71
2019-01-17T06:04:25.894Z,932.81
2019-01-17T06:05:25.792Z,932.70
2019-01-17T06:06:25.687Z,932.72
2019-01-17T06:07:25.696Z,932.81
2019-01-17T06:08:25.498Z,932.72
2019-01-17T06:09:25.378Z,932.76
2019-01-17T06:10:25.281Z,932.77
2019-01-17T06:11:25.180Z,932.74
2019-01-17T06:12:25.078Z,932.72
2019-01-17T06:13:24.994Z,932.72
2019-01-17T06:14:24.979Z,932.77
2019-01-17T06:15:24.778Z,932.74
2019-01-17T06:16:24.675Z,932.77
2019-01-17T06:17:24.573Z,932.73
2019-01-17T06:18:24.487Z,932.75
2019-01-17T06:19:24.383Z,932.75
2019-01-17T06:20:24.392Z,932.80
2019-01-17T06:21:24.168Z,932.72
2019-01-17T06:22:24.064Z,932.74
2019-01-17T06:23:23.967Z,932.73
2019-01-17T06:24:23.878Z,932.76
2019-01-17T06:25:28.029Z,932.74
2019-01-17T06:26:23.658Z,932.79
2019-01-17T06:27:23.561Z,932.73
2019-01-17T06:28:23.475Z,932.71
2019-01-17T06:29:23.357Z,932.77
2019-01-17T06:30:23.252Z,932.73
2019-01-17T06:31:23.161Z,932.70
2019-01-17T06:32:23.061Z,932.73
2019-01-17T06:33:22.955Z,932.74
2019-01-17T06:34:22.868Z,932.73
2019-01-17T06:35:22.746Z,932.72
2019-01-17T06:36:22.648Z,932.77
2019-01-17T06:37:22.544Z,932.80
2019-01-17T06:38:22.445Z,932.77
2019-01-17T06:39:22.360Z,932.68
2019-01-17T06:40:22.240Z,932.70
2019-01-17T06:41:22.164Z,932.74
2019-01-17T06:42:22.040Z,932.75
2019-01-17T06:43:21.940Z,932.74
2019-01-17T06:44:21.852Z,932.80
2019-01-17T06:45:21.734Z,932.74
2019-01-17T06:46:21.633Z,932.72
2019-01-17T06:47:21.530Z,932.77
2019-01-17T06:48:21.434Z,932.75
2019-01-17T06:49:21.348Z,932.75
2019-01-17T06:50:21.231Z,932.72
2019-01-17T06:51:21.127Z,932.77
2019-01-17T06:52:21.027Z,932.81
2019-01-17T06:53:20.939Z,932.72
2019-01-17T06:54:20.838Z,932.70
2019-01-17T06:55:20.720Z,932.74
2019-01-17T06:56:20.619Z,932.73
2019-01-17T06:57:20.519Z,932.75
2019-01-17T06:58:20.420Z,932.74
2019-01-17T06:59:20.332Z,932.74
2019-01-17T07:00:20.217Z,932.72
2019-01-17T07:01:20.114Z,932.74
2019-01-17T07:02:20.013Z,932.73
2019-01-17T07:03:19.913Z,932.75
2019-01-17T07:04:19.825Z,932.71
2019-01-17T07:05:19.708Z,932.71
2019-01-17T07:06:19.606Z,932.70
2019-01-17T07:07:19.503Z,932.72
2019-01-17T07:08:19.407Z,932.68
2019-01-17T07:09:19.330Z,932.71
2019-01-17T07:10:19.203Z,932.72
2019-01-17T07:11:19.099Z,932.72
2019-01-17T07:12:18.996Z,932.74
2019-01-17T07:13:18.896Z,932.75
2019-01-17T07:14:18.814Z,932.73
2019-01-17T07:15:18.694Z,932.67
2019-01-17T07:16:18.594Z,932.70
2019-01-17T07:17:18.493Z,932.74
2019-01-17T07:18:18.389Z,932.75
2019-01-17T07:19:18.303Z,932.72
2019-01-17T07:20:18.185Z,932.70
2019-01-17T07:21:18.087Z,932.68
2019-01-17T07:22:17.987Z,932.69
2019-01-17T07:23:17.885Z,932.68
2019-01-17T07:24:17.800Z,932.70
2019-01-17T07:25:17.679Z,932.70
2019-01-17T07:26:17.582Z,932.70
2019-01-17T07:27:17.473Z,932.70
2019-01-17T07:28:17.377Z,932.74
2019-01-17T07:29:17.291Z,932.75
2019-01-17T07:30:17.174Z,932.73
2019-01-17T07:31:17.072Z,932.76
2019-01-17T07:32:16.972Z,932.77
2019-01-17T07:33:16.871Z,932.76
2019-01-17T07:34:16.786Z,932.77
2019-01-17T07:35:16.670Z,932.80
2019-01-17T07:36:16.566Z,932.79
2019-01-17T07:37:16.579Z,932.79
2019-01-17T07:38:16.363Z,932.81
2019-01-17T07:39:16.277Z,932.79
2019-01-17T07:40:16.158Z,932.79
2019-01-17T07:41:16.058Z,932.80
2019-01-17T07:42:15.955Z,932.78
2019-01-17T07:43:15.853Z,932.79
2019-01-17T07:44:15.774Z,932.80
2019-01-17T07:45:15.651Z,932.84
2019-01-17T07:46:15.555Z,932.76
2019-01-17T07:47:15.451Z,932.77
2019-01-17T07:48:15.350Z,932.74
2019-01-17T07:49:15.268Z,932.76
2019-01-17T07:50:15.145Z,932.78
2019-01-17T07:51:15.153Z,932.78
2019-01-17T07:52:14.942Z,932.78
2019-01-17T07:53:14.845Z,932.79
2019-01-17T07:54:14.759Z,932.74
2019-01-17T07:55:14.638Z,932.80
2019-01-17T07:56:14.537Z,932.84
2019-01-17T07:57:14.438Z,932.82
2019-01-17T07:58:14.439Z,932.87
2019-01-17T07:59:14.254Z,932.81
2019-01-17T08:00:14.134Z,932.84
2019-01-17T08:01:15.103Z,932.75
2019-01-17T08:02:13.932Z,932.79
2019-01-17T08:03:13.827Z,932.87
2019-01-17T08:04:13.748Z,932.81
2019-01-17T08:05:13.744Z,932.81
2019-01-17T08:06:13.525Z,932.81
2019-01-17T08:07:13.426Z,932.75
2019-01-17T08:08:13.325Z,932.73
2019-01-17T08:09:13.240Z,932.77
2019-01-17T08:10:13.119Z,932.78
2019-01-17T08:11:13.020Z,932.80
2019-01-17T08:12:13.034Z,932.77
2019-01-17T08:13:12.818Z,932.77
2019-01-17T08:14:12.740Z,932.79
2019-01-17T08:15:12.615Z,932.75
2019-01-17T08:16:12.514Z,932.81
2019-01-17T08:17:12.412Z,932.76
2019-01-17T08:18:18.499Z,932.81
2019-01-17T08:19:12.316Z,932.78
2019-01-17T08:20:12.128Z,932.84
2019-01-17T08:21:12.005Z,932.81
2019-01-17T08:22:11.904Z,932.72
2019-01-17T08:23:11.807Z,932.71
2019-01-17T08:24:11.702Z,932.83
2019-01-17T08:25:11.617Z,932.81
2019-01-17T08:26:11.602Z,932.82
2019-01-17T08:27:11.402Z,932.80
2019-01-17T08:28:11.299Z,932.83
2019-01-17T08:29:11.202Z,932.85
2019-01-17T08:30:11.112Z,932.84
2019-01-17T08:31:10.999Z,932.83
2019-01-17T08:32:10.890Z,932.83
2019-01-17T08:33:10.895Z,932.80
2019-01-17T08:34:10.693Z,932.80
2019-01-17T08:35:10.602Z,932.80
2019-01-17T08:36:10.486Z,932.77
2019-01-17T08:37:10.387Z,932.75
2019-01-17T08:38:10.284Z,932.77
2019-01-17T08:39:10.185Z,932.78
2019-01-17T08:40:10.201Z,932.76
2019-01-17T08:41:09.987Z,932.76
2019-01-17T08:42:09.881Z,932.78
2019-01-17T08:43:09.776Z,932.79
2019-01-17T08:44:09.676Z,932.79
2019-01-17T08:45:09.594Z,932.81
2019-01-17T08:46:09.474Z,932.82
2019-01-17T08:47:09.481Z,932.80
2019-01-17T08:48:09.271Z,932.83
2019-01-17T08:49:09.171Z,932.79
2019-01-17T08:50:09.087Z,932.79
2019-01-17T08:51:08.969Z,932.79
2019-01-17T08:52:08.866Z,932.82
2019-01-17T08:53:08.765Z,932.80
2019-01-17T08:54:08.767Z,932.80
2019-01-17T08:55:08.579Z,932.87
2019-01-17T08:56:08.464Z,932.80
2019-01-17T08:57:08.363Z,932.83
2019-01-17T08:58:08.260Z,932.83
2019-01-17T08:59:08.161Z,932.84
2019-01-17T09:00:08.076Z,932.79
2019-01-17T09:01:07.970Z,932.82
2019-01-17T09:02:07.859Z,932.79
2019-01-17T09:03:07.755Z,932.76
2019-01-17T09:04:07.653Z,932.82
2019-01-17T09:05:07.573Z,932.81
2019-01-17T09:06:07.456Z,932.79
2019-01-17T09:07:07.349Z,932.79
2019-01-17T09:08:07.252Z,932.83
2019-01-17T09:09:07.154Z,932.81
2019-01-17T09:10:07.066Z,932.85
2019-01-17T09:11:06.972Z,932.83
2019-01-17T09:12:06.844Z,932.77
2019-01-17T09:13:06.748Z,932.80
2019-01-17T09:14:06.669Z,932.75
2019-01-17T09:15:06.564Z,932.81
2019-01-17T09:16:06.442Z,932.79
2019-01-17T09:17:06.341Z,932.81
2019-01-17T09:18:06.238Z,932.83
2019-01-17T09:19:06.137Z,932.84
2019-01-17T09:20:06.064Z,932.76
2019-01-17T09:21:05.936Z,932.79
2019-01-17T09:22:05.838Z,932.74
2019-01-17T09:23:05.739Z,932.74
2019-01-17T09:24:05.632Z,932.82
2019-01-17T09:25:05.552Z,932.71
2019-01-17T09:26:07.577Z,932.79
2019-01-17T09:27:05.330Z,932.84
2019-01-17T09:28:05.230Z,932.85
2019-01-17T09:29:05.131Z,932.83
2019-01-17T09:30:05.046Z,932.89
2019-01-17T09:31:04.930Z,932.85
2019-01-17T09:32:04.826Z,932.87
2019-01-17T09:33:04.728Z,932.84
2019-01-17T09:34:04.629Z,932.84
2019-01-17T09:35:04.541Z,932.86
2019-01-17T09:36:04.421Z,932.87
2019-01-17T09:37:04.324Z,932.93
2019-01-17T09:38:04.227Z,932.89
2019-01-17T09:39:04.122Z,932.88
2019-01-17T09:40:04.040Z,932.93
2019-01-17T09:41:03.922Z,932.93
2019-01-17T09:42:03.816Z,932.88
2019-01-17T09:43:03.715Z,932.88
2019-01-17T09:44:03.620Z,932.83
2019-01-17T09:45:03.530Z,932.85
2019-01-17T09:46:03.416Z,932.84
2019-01-17T09:47:03.312Z,932.82
2019-01-17T09:48:03.213Z,932.81
2019-01-17T09:49:03.110Z,932.84
2019-01-17T09:50:03.027Z,932.81
2019-01-17T09:51:02.911Z,932.80
2019-01-17T09:52:02.810Z,932.81
2019-01-17T09:53:02.712Z,932.74
2019-01-17T09:54:02.608Z,932.73
2019-01-17T09:55:02.529Z,932.72
2019-01-17T09:56:02.407Z,932.73
2019-01-17T09:57:02.306Z,932.74
2019-01-17T09:58:02.203Z,932.76
2019-01-17T09:59:02.110Z,932.75
2019-01-17T10:00:02.025Z,932.71
2019-01-17T10:01:01.908Z,932.70
2019-01-17T10:02:01.802Z,932.66
2019-01-17T10:03:01.701Z,932.68
2019-01-17T10:04:01.597Z,932.66
2019-01-17T10:05:01.500Z,932.62
2019-01-17T10:06:01.413Z,932.70
2019-01-17T10:07:01.301Z,932.69
2019-01-17T10:08:01.201Z,932.65
2019-01-17T10:09:01.098Z,932.71
2019-01-17T10:10:01.002Z,932.72
2019-01-17T10:11:00.909Z,932.63
2019-01-17T10:12:00.798Z,932.65
2019-01-17T10:13:00.696Z,932.65
2019-01-17T10:14:00.596Z,932.65
2019-01-17T10:15:00.494Z,932.61
2019-01-17T10:16:00.415Z,932.65
2019-01-17T10:17:00.312Z,932.57
2019-01-17T10:18:00.188Z,932.57
2019-01-17T10:19:00.089Z,932.61
2019-01-17T10:19:59.990Z,932.60
2019-01-17T10:20:59.906Z,932.58
2019-01-17T10:21:59.786Z,932.56
2019-01-17T10:22:59.685Z,932.59
2019-01-17T10:23:59.592Z,932.54
2019-01-17T10:24:59.485Z,932.57
2019-01-17T10:25:59.404Z,932.50
2019-01-17T10:26:59.280Z,932.54
2019-01-17T10:27:59.185Z,932.51
2019-01-17T10:28:59.995Z,932.51
2019-01-17T10:29:58.983Z,932.51
2019-01-17T10:30:58.900Z,932.47
2019-01-17T10:31:59.557Z,932.47
2019-01-17T10:32:58.682Z,932.46
2019-01-17T10:33:58.578Z,932.51
2019-01-17T10:34:58.481Z,932.48
2019-01-17T10:35:58.391Z,932.49
2019-01-17T10:36:58.293Z,932.50
2019-01-17T10:37:58.173Z,932.45
2019-01-17T10:38:58.172Z,932.41
2019-01-17T10:39:57.991Z,932.46
2019-01-17T10:40:57.891Z,932.41
2019-01-17T10:41:57.775Z,932.42
2019-01-17T10:42:57.673Z,932.42
2019-01-17T10:43:57.568Z,932.40
2019-01-17T10:44:57.470Z,932.35
2019-01-17T10:45:57.477Z,932.37
2019-01-17T10:46:57.265Z,932.34
2019-01-17T10:48:00.327Z,932.31
2019-01-17T10:48:57.067Z,932.33
2019-01-17T10:49:56.965Z,932.33
2019-01-17T10:50:56.881Z,932.37
2019-01-17T10:51:56.764Z,932.36
2019-01-17T10:52:56.771Z,932.28
2019-01-17T10:53:56.565Z,932.28
2019-01-17T10:54:56.462Z,932.19
2019-01-17T10:55:56.377Z,932.25
2019-01-17T10:56:56.261Z,932.24
2019-01-17T10:57:56.162Z,932.19
2019-01-17T10:58:56.056Z,932.21
2019-01-17T10:59:56.069Z,932.10
2019-01-17T11:00:55.875Z,932.10
2019-01-17T11:01:55.758Z,932.10
2019-01-17T11:02:55.655Z,931.99
2019-01-17T11:03:55.556Z,932.00
2019-01-17T11:04:55.471Z,931.98
2019-01-17T11:05:55.371Z,931.98
2019-01-17T11:06:55.360Z,932.00
2019-01-17T11:07:55.155Z,932.01
2019-01-17T11:08:55.050Z,932.01
2019-01-17T11:09:54.952Z,932.01
2019-01-17T11:10:54.871Z,931.98
2019-01-17T11:11:54.755Z,932.04
2019-01-17T11:12:54.651Z,932.00
2019-01-17T11:13:54.653Z,932.01
2019-01-17T11:14:54.449Z,932.01
2019-01-17T11:15:54.365Z,931.99
2019-01-17T11:16:54.252Z,931.97
2019-01-17T11:17:54.146Z,931.93
2019-01-17T11:18:54.044Z,931.93
2019-01-17T11:19:53.950Z,931.88
2019-01-17T11:20:53.963Z,931.91
2019-01-17T11:21:53.748Z,931.87
2019-01-17T11:22:53.644Z,931.88
2019-01-17T11:23:53.548Z,931.86
2019-01-17T11:24:53.451Z,931.77
2019-01-17T11:25:53.357Z,931.78
2019-01-17T11:26:53.246Z,931.86
2019-01-17T11:27:53.242Z,931.81
2019-01-17T11:28:53.042Z,931.81
2019-01-17T11:29:52.945Z,931.86
2019-01-17T11:30:52.861Z,931.84
2019-01-17T11:31:52.749Z,931.86
2019-01-17T11:32:52.641Z,931.81
2019-01-17T11:33:52.558Z,931.85
2019-01-17T11:34:52.566Z,931.86
2019-01-17T11:35:52.359Z,931.87
2019-01-17T11:36:52.239Z,931.82
2019-01-17T11:37:52.143Z,931.84
2019-01-17T11:38:52.040Z,931.82
2019-01-17T11:39:51.942Z,931.89
2019-01-17T11:40:51.855Z,931.91
2019-01-17T11:41:51.844Z,931.88
2019-01-17T11:42:51.636Z,931.82
2019-01-17T11:43:51.535Z,931.80
2019-01-17T11:44:51.440Z,931.80
2019-01-17T11:45:51.337Z,931.82
2019-01-17T11:46:51.256Z,931.87
2019-01-17T11:47:51.136Z,931.88
2019-01-17T11:48:51.039Z,931.80
2019-01-17T11:49:50.937Z,931.74
2019-01-17T11:50:50.851Z,931.72
2019-01-17T11:51:50.741Z,931.71
2019-01-17T11:52:50.632Z,931.76
2019-01-17T11:53:50.531Z,931.80
2019-01-17T11:54:50.430Z,931.79
2019-01-17T11:55:50.470Z,931.78
2019-01-17T11:56:50.248Z,931.77
2019-01-17T11:57:50.133Z,931.74
2019-01-17T11:58:50.029Z,931.75
2019-01-17T11:59:49.931Z,931.66
2019-01-17T12:00:49.833Z,931.69
2019-01-17T12:01:49.822Z,931.65
2019-01-17T12:02:49.629Z,931.66
2019-01-17T12:03:49.529Z,931.63
2019-01-17T12:04:49.430Z,931.71
2019-01-17T12:05:49.330Z,931.69
2019-01-17T12:06:49.247Z,931.69
2019-01-17T12:07:49.133Z,931.71
2019-01-17T12:08:49.027Z,931.62
2019-01-17T12:09:48.923Z,931.66
2019-01-17T12:10:48.823Z,931.57
2019-01-17T12:11:48.741Z,931.58
2019-01-17T12:12:48.629Z,931.59
2019-01-17T12:13:48.522Z,931.58
2019-01-17T12:14:48.419Z,931.59
2019-01-17T12:15:48.322Z,931.54
2019-01-17T12:16:48.238Z,931.54
2019-01-17T12:17:48.120Z,931.62
2019-01-17T12:18:48.021Z,931.67
2019-01-17T12:19:47.921Z,931.69
2019-01-17T12:20:47.830Z,931.71
2019-01-17T12:21:47.736Z,931.67
2019-01-17T12:22:47.625Z,931.65
2019-01-17T12:23:47.520Z,931.63
2019-01-17T12:24:47.417Z,931.63
2019-01-17T12:25:47.316Z,931.64
2019-01-17T12:26:47.557Z,931.64